TimeCDT,TemperatureF,Dew PointF,Humidity,Sea Level PressureIn,VisibilityMPH,Wind Direction,Wind SpeedMPH,Gust SpeedMPH,PrecipitationIn,Events,Conditions,WindDirDegrees,DateUTC
12:56 AM,72.9,70.0,91,29.93,10.0,SE,3.5,-,N/A,,Partly Cloudy,140,2013-08-30 05:56:00
1:56 AM,72.0,70.9,96,29.91,10.0,SE,4.6,-,N/A,,Clear,130,2013-08-30 06:56:00
2:56 AM,72.0,72.0,100,29.89,10.0,Calm,Calm,-,N/A,,Clear,0,2013-08-30 07:56:00
3:56 AM,70.9,70.9,100,29.87,10.0,Calm,Calm,-,N/A,,Clear,0,2013-08-30 08:56:00
4:56 AM,70.9,-9999,N/A,29.86,9.0,South,6.9,-,N/A,,Partly Cloudy,180,2013-08-30 09:56:00
5:56 AM,70.9,70.9,100,29.85,10.0,SSW,4.6,-,N/A,,Clear,200,2013-08-30 10:56:00
6:56 AM,72.0,72.0,100,29.84,8.0,South,4.6,-,N/A,,Clear,190,2013-08-30 11:56:00
7:56 AM,74.8,74.8,100,29.83,9.0,SW,6.9,-,N/A,,Partly Cloudy,220,2013-08-30 12:56:00
8:56 AM,79.9,75.9,88,29.82,10.0,SW,9.2,-,N/A,,Clear,230,2013-08-30 13:56:00
9:56 AM,84.9,74.8,72,29.81,10.0,West,8.1,-,N/A,,Partly Cloudy,260,2013-08-30 14:56:00
10:56 AM,86.9,73.9,65,29.81,10.0,West,5.8,-,N/A,,Mostly Cloudy,280,2013-08-30 15:56:00
11:56 AM,84.9,74.8,72,29.81,10.0,Variable,6.9,-,N/A,,Overcast,0,2013-08-30 16:56:00
12:36 PM,87.8,75.2,66,29.84,10.0,NW,8.1,-,N/A,,Scattered Clouds,320,2013-08-30 17:36:00
12:56 PM,84.2,73.4,70,29.84,10.0,North,9.2,-,N/A,,Mostly Cloudy,350,2013-08-30 17:56:00
1:56 PM,88.9,70.9,55,29.80,10.0,NNW,8.1,-,N/A,,Partly Cloudy,340,2013-08-30 18:56:00
2:56 PM,88.9,72.0,57,29.79,10.0,NNW,13.8,-,N/A,,Clear,340,2013-08-30 19:56:00
3:56 PM,86.9,68.9,55,29.81,10.0,NNW,10.4,-,N/A,,Partly Cloudy,340,2013-08-30 20:56:00
4:56 PM,86.0,66.9,53,29.80,10.0,North,9.2,-,N/A,,Partly Cloudy,360,2013-08-30 21:56:00
5:56 PM,84.9,65.8,53,29.81,10.0,NNE,10.4,-,N/A,,Clear,20,2013-08-30 22:56:00
6:56 PM,79.9,64.9,60,29.84,10.0,NE,9.2,-,N/A,,Mostly Cloudy,50,2013-08-30 23:56:00
7:56 PM,75.9,64.9,69,29.86,10.0,NE,5.8,-,N/A,,Clear,50,2013-08-31 00:56:00
8:56 PM,73.9,64.9,73,29.88,10.0,NE,8.1,-,N/A,,Scattered Clouds,50,2013-08-31 01:56:00
9:56 PM,72.0,63.9,76,29.88,10.0,NE,10.4,18.4,N/A,,Clear,50,2013-08-31 02:56:00
10:56 PM,68.9,63.9,84,29.89,10.0,NE,5.8,-,N/A,,Clear,50,2013-08-31 03:56:00
11:56 PM,65.8,64.9,97,29.89,10.0,NE,3.5,-,N/A,,Clear,40,2013-08-31 04:56:00